createdAt,value
2023-04-16T00:01:27.338Z,84.68
2023-04-16T00:04:05.150Z,84.65
2023-04-16T00:06:41.251Z,84.59
2023-04-16T00:09:18.035Z,84.32
2023-04-16T00:11:53.365Z,84.12
2023-04-16T00:14:42.279Z,84.08
2023-04-16T00:18:05.394Z,84.18
2023-04-16T00:20:39.210Z,84.23
2023-04-16T00:23:13.074Z,84.04
2023-04-16T00:25:50.346Z,83.96
2023-04-16T00:28:24.729Z,83.87
2023-04-16T00:31:04.073Z,83.64
2023-04-16T00:36:47.344Z,83.30
2023-04-16T00:40:30.693Z,83.39
2023-04-16T00:43:28.410Z,83.35
2023-04-16T00:46:15.240Z,83.21
2023-04-16T00:49:28.602Z,83.27
2023-04-16T00:52:20.719Z,83.09
2023-04-16T00:58:13.757Z,83.55
2023-04-16T01:00:47.148Z,83.54
2023-04-16T01:03:18.344Z,83.49
2023-04-16T01:05:59.975Z,83.47
2023-04-16T01:08:42.370Z,83.26
2023-04-16T01:11:18.705Z,83.45
2023-04-16T01:14:11.025Z,83.41
2023-04-16T01:16:47.032Z,83.28
2023-04-16T01:19:44.152Z,83.42
2023-04-16T01:22:35.652Z,83.68
2023-04-16T01:25:52.236Z,83.76
2023-04-16T01:28:54.020Z,83.90
2023-04-16T01:31:50.805Z,83.93
2023-04-16T01:34:53.382Z,83.96
2023-04-16T01:41:38.780Z,84.57
2023-04-16T01:44:28.429Z,84.37
2023-04-16T01:47:39.449Z,84.35
2023-04-16T01:54:25.633Z,83.99
2023-04-16T02:00:08.661Z,83.48
2023-04-16T02:03:05.705Z,83.53
2023-04-16T02:15:25.514Z,83.56
2023-04-16T02:18:18.259Z,83.45
2023-04-16T02:20:57.437Z,83.46
2023-04-16T02:23:38.522Z,83.60
2023-04-16T02:33:15.649Z,83.80
2023-04-16T02:39:43.430Z,83.84
2023-04-16T02:42:58.379Z,83.89
2023-04-16T02:49:10.092Z,83.88
2023-04-16T02:52:15.097Z,83.97
2023-04-16T02:55:08.993Z,83.93
2023-04-16T02:57:50.001Z,83.64
2023-04-16T03:04:14.295Z,84.35
2023-04-16T03:10:25.155Z,84.64
2023-04-16T03:13:01.828Z,84.58
2023-04-16T03:15:51.967Z,84.51
2023-04-16T03:18:57.487Z,84.66
2023-04-16T03:22:05.829Z,84.53
2023-04-16T03:24:44.656Z,84.39
2023-04-16T03:27:51.889Z,84.37
2023-04-16T03:34:03.569Z,84.50
2023-04-16T03:37:16.555Z,84.63
2023-04-16T03:39:56.940Z,84.60
2023-04-16T03:42:51.901Z,84.60
2023-04-16T03:45:55.968Z,84.91
2023-04-16T03:48:56.018Z,85.02
2023-04-16T03:52:12.705Z,85.03
2023-04-16T03:55:08.364Z,85.08
2023-04-16T04:24:32.580Z,84.65
2023-04-16T04:27:29.608Z,84.22
2023-04-16T04:30:13.143Z,84.11
2023-04-16T04:33:12.126Z,84.11
2023-04-16T04:35:59.110Z,84.15
2023-04-16T04:38:41.523Z,84.21
2023-04-16T04:41:20.611Z,83.66
2023-04-16T04:44:41.441Z,83.56
2023-04-16T04:47:47.493Z,83.68
2023-04-16T04:50:38.430Z,83.77
2023-04-16T04:53:42.722Z,83.22
2023-04-16T04:56:45.526Z,83.24
2023-04-16T04:59:40.623Z,83.13
2023-04-16T05:06:35.966Z,83.39
2023-04-16T05:10:08.518Z,83.51
2023-04-16T05:12:49.160Z,82.87
2023-04-16T05:15:33.107Z,82.63
2023-04-16T05:18:05.805Z,82.70
2023-04-16T05:20:42.921Z,82.68
2023-04-16T05:23:32.976Z,82.84
2023-04-16T05:26:07.415Z,82.72
2023-04-16T05:28:42.090Z,82.57
2023-04-16T05:31:15.769Z,82.58
2023-04-16T05:33:58.424Z,82.56
2023-04-16T05:36:33.709Z,82.41
2023-04-16T05:39:37.370Z,82.45
2023-04-16T05:42:15.217Z,82.22
2023-04-16T05:44:48.552Z,82.35
2023-04-16T05:47:26.649Z,82.36
2023-04-16T05:50:02.184Z,82.36
2023-04-16T05:52:55.913Z,82.29
2023-04-16T05:55:34.649Z,82.30
2023-04-16T05:58:09.933Z,82.18
2023-04-16T06:01:25.806Z,81.82
2023-04-16T06:03:58.550Z,81.87
2023-04-16T06:06:34.225Z,82.16
2023-04-16T06:09:12.757Z,82.07
2023-04-16T06:11:42.962Z,81.74
2023-04-16T06:14:57.026Z,81.67
2023-04-16T06:17:37.873Z,81.63
2023-04-16T06:20:17.759Z,81.68
2023-04-16T06:23:07.840Z,81.85
2023-04-16T06:26:43.231Z,81.85
2023-04-16T06:30:01.447Z,81.97
2023-04-16T06:32:39.309Z,81.89
2023-04-16T06:35:09.950Z,81.83
2023-04-16T06:37:44.393Z,81.59
2023-04-16T06:40:24.075Z,81.31
2023-04-16T06:43:37.798Z,81.19
2023-04-16T06:46:18.485Z,81.17
2023-04-16T06:50:02.987Z,81.05
2023-04-16T06:52:40.777Z,81.14
2023-04-16T07:19:08.739Z,80.42
2023-04-16T07:22:02.460Z,79.97
2023-04-16T07:25:56.219Z,79.70
2023-04-16T07:29:01.516Z,79.27
2023-04-16T07:35:44.877Z,79.34
2023-04-16T07:38:51.215Z,79.22
2023-04-16T07:41:54.924Z,78.71
2023-04-16T07:48:51.450Z,78.33
2023-04-16T07:51:49.586Z,78.02
2023-04-16T07:54:59.460Z,77.79
2023-04-16T08:02:17.032Z,76.98
2023-04-16T08:09:44.867Z,76.82
2023-04-16T08:12:45.060Z,76.83
2023-04-16T08:19:37.379Z,74.83
2023-04-16T08:22:18.982Z,74.52
2023-04-16T08:29:38.774Z,74.05
2023-04-16T08:34:34.887Z,74.21
2023-04-16T08:37:56.158Z,73.75
2023-04-16T08:40:41.859Z,73.14
2023-04-16T08:43:22.599Z,73.03
2023-04-16T08:45:54.273Z,73.06
2023-04-16T08:48:43.099Z,72.47
2023-04-16T08:51:44.441Z,71.78
2023-04-16T08:54:35.407Z,70.71
2023-04-16T08:57:47.498Z,70.31
2023-04-16T09:01:03.356Z,69.48
2023-04-16T09:03:54.105Z,68.54
2023-04-16T09:06:41.382Z,67.83
2023-04-16T09:09:13.613Z,67.58
2023-04-16T09:12:48.910Z,67.55
2023-04-16T09:15:27.145Z,67.95
2023-04-16T12:04:23.113Z,65.75
2023-04-16T13:03:32.671Z,63.54
2023-04-16T13:07:11.811Z,63.88
2023-04-16T13:15:28.650Z,63.47
2023-04-16T13:18:12.763Z,63.92
2023-04-16T13:21:20.166Z,63.53
2023-04-16T13:24:44.842Z,63.37
2023-04-16T13:27:45.225Z,63.38
2023-04-16T13:28:41.470Z,63.61
2023-04-16T13:30:30.472Z,63.27
2023-04-16T13:33:20.579Z,62.79
2023-04-16T13:36:11.119Z,62.74
2023-04-16T13:57:43.086Z,62.64
2023-04-16T14:00:50.241Z,62.96
2023-04-16T14:06:58.847Z,63.53
2023-04-16T14:16:58.170Z,63.34
2023-04-16T14:36:52.785Z,61.12
2023-04-16T15:33:37.457Z,64.76
2023-04-16T15:46:05.819Z,64.97
2023-04-16T15:49:36.749Z,65.09
2023-04-16T15:53:02.377Z,65.08
2023-04-16T16:51:11.200Z,68.54
2023-04-16T16:53:55.287Z,68.56
2023-04-16T17:01:57.873Z,69.32
2023-04-16T17:14:27.176Z,70.95
2023-04-16T17:27:38.429Z,73.15
2023-04-16T17:35:28.067Z,73.55
2023-04-16T17:38:26.296Z,73.96
2023-04-16T17:42:04.620Z,73.49
2023-04-16T17:45:19.592Z,73.53
2023-04-16T17:52:55.287Z,73.68
2023-04-16T17:55:28.680Z,74.11
2023-04-16T17:58:40.868Z,74.14
2023-04-16T18:01:58.975Z,74.16
2023-04-16T18:04:40.657Z,74.42
2023-04-16T18:07:57.399Z,74.51
2023-04-16T18:10:55.106Z,74.74
2023-04-16T18:18:31.291Z,75.13
2023-04-16T18:22:27.695Z,75.41
2023-04-16T19:07:27.725Z,77.36
2023-04-16T19:10:06.725Z,77.53
2023-04-16T19:13:47.247Z,77.56
2023-04-16T19:16:25.703Z,77.54
2023-04-16T19:19:31.129Z,77.67
2023-04-16T19:23:01.447Z,77.41
2023-04-16T19:26:41.498Z,77.69
2023-04-16T19:29:40.268Z,77.61
2023-04-16T19:32:29.656Z,77.44
2023-04-16T19:35:42.241Z,77.24
2023-04-16T19:55:44.367Z,76.74
2023-04-16T19:58:40.670Z,76.53
2023-04-16T20:15:20.509Z,75.50
2023-04-16T21:02:33.447Z,69.62
2023-04-16T21:05:34.922Z,68.47
2023-04-16T21:08:43.396Z,68.82
2023-04-16T21:11:36.705Z,69.18
2023-04-16T21:14:24.516Z,69.10
2023-04-16T21:17:12.175Z,69.45
2023-04-16T21:19:45.930Z,69.52
2023-04-16T21:28:36.193Z,70.07
2023-04-16T21:31:48.524Z,70.21
2023-04-16T21:37:21.593Z,70.54
2023-04-16T21:39:52.498Z,70.63
2023-04-16T21:42:27.385Z,70.78
2023-04-16T21:45:58.673Z,70.79
2023-04-16T21:49:02.858Z,70.98
2023-04-16T21:53:00.020Z,70.95
2023-04-16T21:55:46.185Z,71.01
2023-04-16T21:58:27.268Z,71.01
2023-04-16T22:01:11.035Z,71.02
2023-04-16T22:04:18.761Z,71.22
2023-04-16T22:07:02.417Z,71.14
2023-04-16T22:09:44.404Z,71.26
2023-04-16T22:13:20.440Z,71.35
2023-04-16T22:15:55.647Z,71.18
2023-04-16T22:19:11.129Z,71.39
2023-04-16T22:22:55.458Z,71.35
2023-04-16T22:25:28.010Z,71.49
2023-04-16T22:28:25.918Z,71.47
2023-04-16T22:35:09.176Z,71.09
2023-04-16T22:41:20.087Z,71.02
2023-04-16T22:47:32.730Z,71.11
2023-04-16T22:50:22.348Z,71.26
2023-04-16T22:57:17.200Z,71.18
2023-04-16T23:01:17.591Z,71.21
2023-04-16T23:07:56.042Z,71.36
2023-04-16T23:10:47.948Z,71.23
2023-04-16T23:13:35.295Z,70.82
2023-04-16T23:19:57.789Z,70.55
2023-04-16T23:23:12.711Z,70.58
2023-04-16T23:29:21.667Z,70.38
2023-04-16T23:35:23.229Z,70.17
2023-04-16T23:38:28.111Z,70.05
2023-04-16T23:42:49.246Z,69.80
2023-04-16T23:45:28.407Z,69.84
2023-04-16T23:49:05.379Z,69.35
2023-04-16T23:55:27.102Z,69.28
